Time;durP1;ratioP1;P1;durP2;ratioP2;P2;SDS_P1;SDS_P2;PMS_P1;PMS_P2;Temp;Humidity;BMP_temperature;BMP_pressure;BME280_temperature;BME280_humidity;BME280_pressure;Samples;Min_cycle;Max_cycle;Signal;HPM_P1;HPM_P2
2023/11/22 00:00:58;;;;;;;9.67;6.43;;;;;4.30;96526.00;;;;5040693;28;20439;-90
2023/11/22 00:03:48;;;;;;;307.40;74.30;;;;;5.00;96532.00;;;;5040018;28;20455;-91
2023/11/22 00:06:37;;;;;;;308.93;74.27;;;;;4.90;96521.00;;;;5043527;28;20913;-92
2023/11/22 00:09:26;;;;;;;323.63;85.23;;;;;5.20;96531.00;;;;5043331;28;20443;-92
2023/11/22 00:12:17;;;;;;;322.83;87.50;;;;;5.30;96537.00;;;;5038804;28;20424;-91
2023/11/22 00:15:09;;;;;;;202.97;61.23;;;;;5.20;96538.00;;;;5043652;28;20428;-90
2023/11/22 00:18:03;;;;;;;310.20;93.73;;;;;5.20;96527.00;;;;5036369;28;20480;-92
2023/11/22 00:20:52;;;;;;;74.40;39.50;;;;;5.10;96532.00;;;;5044631;28;20820;-91
2023/11/22 00:23:41;;;;;;;9.97;4.67;;;;;5.10;96529.00;;;;5047100;28;20468;-91
2023/11/22 00:26:30;;;;;;;8.37;3.17;;;;;4.90;96515.00;;;;5050417;28;20436;-91
2023/11/22 00:29:19;;;;;;;13.10;4.67;;;;;4.90;96512.00;;;;5043705;28;20235;-91
2023/11/22 00:32:09;;;;;;;8.10;3.27;;;;;4.70;96507.00;;;;5040844;28;20202;-91
2023/11/22 00:34:59;;;;;;;8.03;3.80;;;;;4.60;96518.00;;;;5042341;28;20443;-90
2023/11/22 00:37:48;;;;;;;126.47;59.87;;;;;4.40;96508.00;;;;5041983;28;20463;-91
2023/11/22 00:40:37;;;;;;;16.93;8.30;;;;;4.90;96521.00;;;;5031227;28;20971;-92
2023/11/22 00:43:27;;;;;;;23.70;19.97;;;;;5.00;96524.00;;;;5027542;28;20453;-92
2023/11/22 00:46:16;;;;;;;15.07;5.57;;;;;5.00;96520.00;;;;5041463;28;20201;-92
2023/11/22 00:49:05;;;;;;;8.53;3.23;;;;;4.90;96528.00;;;;5030674;28;20451;-92
2023/11/22 00:51:56;;;;;;;10.73;6.40;;;;;4.90;96532.00;;;;5032506;28;20433;-92
2023/11/22 00:54:46;;;;;;;8.40;7.40;;;;;4.80;96534.00;;;;5054453;28;20238;-91
2023/11/22 00:57:36;;;;;;;157.70;64.27;;;;;4.80;96552.00;;;;5042746;28;20228;-91
2023/11/22 01:00:26;;;;;;;16.37;6.13;;;;;4.70;96546.00;;;;5034887;28;20449;-92
2023/11/22 01:03:15;;;;;;;15.80;5.73;;;;;4.40;96545.00;;;;5043247;28;20697;-91
2023/11/22 01:06:06;;;;;;;15.53;6.40;;;;;4.60;96546.00;;;;5047610;28;20253;-91
2023/11/22 01:08:56;;;;;;;12.17;8.40;;;;;4.40;96546.00;;;;5045738;28;20252;-92
2023/11/22 01:11:47;;;;;;;106.93;55.43;;;;;4.20;96539.00;;;;5040482;28;20215;-91
2023/11/22 01:14:36;;;;;;;19.50;17.73;;;;;4.30;96537.00;;;;5044718;28;20431;-91
2023/11/22 01:17:25;;;;;;;15.70;6.20;;;;;4.20;96544.00;;;;5042149;28;20238;-91
2023/11/22 01:20:14;;;;;;;15.97;6.20;;;;;4.30;96548.00;;;;5049368;28;20229;-91
2023/11/22 01:23:04;;;;;;;10.87;7.70;;;;;4.30;96534.00;;;;5053482;28;20428;-91
2023/11/22 01:25:54;;;;;;;12.97;11.67;;;;;4.30;96547.00;;;;5051432;28;20464;-92
2023/11/22 01:28:44;;;;;;;15.27;13.40;;;;;4.30;96539.00;;;;5048354;28;20448;-92
2023/11/22 01:31:33;;;;;;;34.23;30.13;;;;;4.20;96551.00;;;;5043557;28;20201;-91
2023/11/22 01:34:22;;;;;;;121.93;61.40;;;;;3.80;96543.00;;;;5051533;28;20801;-90
2023/11/22 01:37:12;;;;;;;51.00;37.13;;;;;3.60;96541.00;;;;5038936;28;20431;-91
2023/11/22 01:40:02;;;;;;;12.47;4.97;;;;;3.40;96543.00;;;;5047757;28;21158;-90
2023/11/22 01:42:54;;;;;;;12.00;7.70;;;;;4.00;96547.00;;;;5048494;28;20449;-90
2023/11/22 01:45:43;;;;;;;33.57;30.77;;;;;4.10;96548.00;;;;5047683;28;20423;-91
2023/11/22 01:48:33;;;;;;;52.67;32.23;;;;;4.10;96544.00;;;;5043649;28;20451;-90
2023/11/22 01:51:23;;;;;;;26.00;15.07;;;;;4.10;96541.00;;;;5044483;28;20427;-91
2023/11/22 01:54:13;;;;;;;10.23;6.10;;;;;4.10;96542.00;;;;5052174;28;20438;-91
2023/11/22 01:57:03;;;;;;;22.43;15.60;;;;;4.00;96550.00;;;;5047260;28;20444;-91
2023/11/22 01:59:53;;;;;;;19.47;8.37;;;;;4.00;96550.00;;;;5045498;28;20455;-91
2023/11/22 02:02:43;;;;;;;13.53;8.43;;;;;3.90;96549.00;;;;5036776;28;20436;-91
2023/11/22 02:05:33;;;;;;;6.83;2.70;;;;;4.00;96557.00;;;;5051736;28;20442;-91
2023/11/22 02:08:22;;;;;;;15.17;5.40;;;;;4.00;96545.00;;;;5041592;28;20436;-90
2023/11/22 02:11:11;;;;;;;4.37;1.83;;;;;4.00;96551.00;;;;5042338;28;20439;-91
2023/11/22 02:14:00;;;;;;;5.00;2.30;;;;;4.00;96558.00;;;;5039047;28;20444;-90
2023/11/22 02:16:51;;;;;;;3.60;1.63;;;;;4.00;96560.00;;;;5048828;28;20470;-91
2023/11/22 02:19:40;;;;;;;4.00;1.87;;;;;3.70;96561.00;;;;5047106;28;20466;-91
2023/11/22 02:22:29;;;;;;;5.63;2.67;;;;;3.80;96565.00;;;;5051113;28;20853;-90
2023/11/22 02:25:20;;;;;;;7.40;3.17;;;;;3.90;96572.00;;;;5046789;28;20435;-90
2023/11/22 02:28:09;;;;;;;8.60;3.50;;;;;3.50;96569.00;;;;5036645;28;20432;-90
2023/11/22 02:30:59;;;;;;;6.60;2.70;;;;;3.20;96573.00;;;;5040428;28;20429;-91
2023/11/22 02:33:48;;;;;;;4.37;1.87;;;;;3.10;96577.00;;;;5047351;28;21061;-90
2023/11/22 02:36:37;;;;;;;4.23;2.00;;;;;2.70;96582.00;;;;5045304;28;20415;-89
2023/11/22 02:39:34;;;;;;;9.10;3.93;;;;;3.00;96595.00;;;;5039912;28;20472;-92
2023/11/22 02:42:24;;;;;;;6.47;2.87;;;;;3.40;96595.00;;;;5046393;28;20432;-90
2023/11/22 02:45:14;;;;;;;6.13;2.67;;;;;3.50;96590.00;;;;5047892;28;20431;-91
2023/11/22 02:48:09;;;;;;;5.93;2.57;;;;;3.40;96580.00;;;;5058465;28;20424;-92
2023/11/22 02:50:58;;;;;;;3.97;1.97;;;;;3.30;96577.00;;;;5045318;28;20427;-90
2023/11/22 02:53:48;;;;;;;4.90;2.03;;;;;3.20;96572.00;;;;5044409;28;20803;-91
2023/11/22 02:56:37;;;;;;;5.83;2.53;;;;;2.90;96576.00;;;;5043793;28;20428;-91
2023/11/22 02:59:27;;;;;;;6.47;2.83;;;;;3.10;96563.00;;;;5042063;28;20460;-90
2023/11/22 03:02:17;;;;;;;9.87;4.23;;;;;3.30;96582.00;;;;5045233;28;20833;-92
2023/11/22 03:05:07;;;;;;;5.97;2.60;;;;;3.30;96574.00;;;;5050506;28;20454;-91
2023/11/22 03:07:58;;;;;;;6.20;2.70;;;;;3.20;96586.00;;;;5041246;28;20451;-91
2023/11/22 03:10:47;;;;;;;6.30;2.90;;;;;2.90;96584.00;;;;5046520;28;20826;-91
2023/11/22 03:13:36;;;;;;;5.63;2.50;;;;;3.20;96586.00;;;;5042421;28;20810;-90
2023/11/22 03:16:26;;;;;;;9.53;3.93;;;;;3.20;96585.00;;;;5049012;28;20434;-91
2023/11/22 03:19:16;;;;;;;6.47;2.63;;;;;3.20;96586.00;;;;5043315;28;20467;-91
2023/11/22 03:22:05;;;;;;;4.17;2.03;;;;;3.00;96586.00;;;;5046114;28;20438;-91
2023/11/22 03:24:54;;;;;;;5.20;2.33;;;;;3.00;96593.00;;;;5040871;28;20423;-90
2023/11/22 03:27:44;;;;;;;6.33;2.67;;;;;3.20;96588.00;;;;5040662;28;20428;-91
2023/11/22 03:30:33;;;;;;;5.13;2.27;;;;;3.20;96600.00;;;;5048485;28;20427;-92
2023/11/22 03:33:24;;;;;;;9.90;3.93;;;;;3.20;96604.00;;;;5036817;28;20431;-91
2023/11/22 03:36:13;;;;;;;8.37;3.43;;;;;3.00;96598.00;;;;5052276;28;20513;-91
2023/11/22 03:39:02;;;;;;;5.83;2.47;;;;;3.00;96611.00;;;;5048549;28;20467;-90
2023/11/22 03:41:51;;;;;;;7.07;2.97;;;;;3.00;96606.00;;;;5039758;28;20430;-91
2023/11/22 03:44:41;;;;;;;5.67;2.40;;;;;3.10;96609.00;;;;5041784;28;20479;-90
2023/11/22 03:47:31;;;;;;;9.27;3.77;;;;;3.20;96617.00;;;;5038291;28;20431;-91
2023/11/22 03:50:22;;;;;;;9.13;3.77;;;;;3.20;96609.00;;;;5041317;28;20471;-91
2023/11/22 03:53:11;;;;;;;5.30;2.30;;;;;3.20;96620.00;;;;5036378;28;20427;-91
2023/11/22 03:56:00;;;;;;;4.67;2.17;;;;;3.30;96623.00;;;;5046757;28;20783;-91
2023/11/22 03:58:49;;;;;;;3.10;1.43;;;;;3.20;96621.00;;;;5037506;28;20471;-91
2023/11/22 04:01:39;;;;;;;4.10;1.90;;;;;3.10;96627.00;;;;5040063;28;20452;-90
2023/11/22 04:04:31;;;;;;;6.33;2.63;;;;;3.00;96632.00;;;;5039315;28;20432;-90
2023/11/22 04:07:21;;;;;;;8.17;3.40;;;;;3.00;96643.00;;;;5043623;28;20423;-90
2023/11/22 04:10:11;;;;;;;4.40;2.10;;;;;3.20;96640.00;;;;5031941;28;20466;-90
2023/11/22 04:13:00;;;;;;;5.83;2.50;;;;;3.00;96631.00;;;;5031885;28;20428;-91
2023/11/22 04:15:49;;;;;;;4.87;2.23;;;;;3.00;96641.00;;;;5038757;28;20423;-90
2023/11/22 04:18:40;;;;;;;3.67;1.70;;;;;2.80;96640.00;;;;5041648;28;20474;-91
2023/11/22 04:21:29;;;;;;;7.37;3.20;;;;;3.00;96644.00;;;;5035621;28;20452;-90
2023/11/22 04:24:19;;;;;;;9.53;3.93;;;;;2.70;96636.00;;;;5030263;28;20451;-90
2023/11/22 04:27:09;;;;;;;4.80;2.23;;;;;1.30;96635.00;;;;5046871;28;20457;-88
2023/11/22 04:29:58;;;;;;;11.50;4.30;;;;;2.40;96650.00;;;;5039516;28;20433;-90
2023/11/22 04:32:48;;;;;;;6.50;2.80;;;;;2.80;96646.00;;;;5052176;28;20432;-91
2023/11/22 04:35:38;;;;;;;6.33;2.67;;;;;2.60;96649.00;;;;5049958;28;20445;-91
2023/11/22 04:38:28;;;;;;;8.47;3.53;;;;;2.60;96660.00;;;;5056295;28;20940;-90
2023/11/22 04:41:19;;;;;;;11.00;4.27;;;;;2.30;96656.00;;;;5043730;28;20426;-90
2023/11/22 04:44:08;;;;;;;6.00;2.63;;;;;2.40;96661.00;;;;5046594;28;20843;-90
2023/11/22 04:46:59;;;;;;;6.07;2.43;;;;;2.40;96659.00;;;;5044969;28;20420;-91
2023/11/22 04:49:48;;;;;;;4.17;1.87;;;;;2.70;96656.00;;;;5045803;28;20980;-90
2023/11/22 04:52:37;;;;;;;6.50;2.83;;;;;2.70;96669.00;;;;5049073;28;20411;-91
2023/11/22 04:55:27;;;;;;;7.73;3.17;;;;;2.80;96682.00;;;;5062311;28;20423;-90
2023/11/22 04:58:17;;;;;;;7.90;3.37;;;;;3.00;96693.00;;;;5050488;28;20798;-91
2023/11/22 05:01:08;;;;;;;7.40;3.10;;;;;2.90;96701.00;;;;5040421;28;20423;-90
2023/11/22 05:03:58;;;;;;;6.33;2.70;;;;;2.70;96702.00;;;;5040484;28;20428;-90
2023/11/22 05:06:47;;;;;;;5.23;2.33;;;;;3.00;96701.00;;;;5041974;28;20424;-90
2023/11/22 05:09:36;;;;;;;4.63;2.10;;;;;3.10;96705.00;;;;5060582;28;20440;-90
2023/11/22 05:12:26;;;;;;;8.67;3.60;;;;;2.90;96708.00;;;;5037878;28;20428;-90
2023/11/22 05:15:16;;;;;;;6.37;2.70;;;;;3.00;96709.00;;;;5047956;28;20423;-91
2023/11/22 05:18:06;;;;;;;5.57;2.37;;;;;2.90;96713.00;;;;5049154;28;20451;-89
2023/11/22 05:20:55;;;;;;;5.43;2.40;;;;;2.70;96715.00;;;;5044376;28;20466;-90
2023/11/22 05:23:44;;;;;;;6.53;2.77;;;;;3.20;96728.00;;;;5052935;28;20431;-92
2023/11/22 05:26:34;;;;;;;4.33;2.00;;;;;3.10;96720.00;;;;5044151;28;20448;-90
2023/11/22 05:29:23;;;;;;;10.53;4.13;;;;;3.00;96719.00;;;;5053885;28;20443;-91
2023/11/22 05:32:15;;;;;;;6.27;2.57;;;;;3.00;96726.00;;;;5050329;28;20431;-90
2023/11/22 05:35:06;;;;;;;4.67;2.10;;;;;2.60;96726.00;;;;5048386;28;20449;-89
2023/11/22 05:37:57;;;;;;;5.30;2.23;;;;;2.70;96734.00;;;;5045475;28;20435;-92
2023/11/22 05:40:46;;;;;;;9.80;3.87;;;;;2.80;96745.00;;;;5049241;28;20458;-90
2023/11/22 05:43:45;;;;;;;3.57;1.63;;;;;2.80;96748.00;;;;5046624;28;20438;-90
2023/11/22 05:46:35;;;;;;;5.30;2.33;;;;;3.10;96747.00;;;;5037256;28;20813;-90
2023/11/22 05:49:25;;;;;;;11.13;4.37;;;;;3.10;96756.00;;;;5042705;28;20457;-91
2023/11/22 05:52:14;;;;;;;6.07;2.47;;;;;3.10;96760.00;;;;5048336;28;20451;-90
2023/11/22 05:55:04;;;;;;;9.23;3.57;;;;;3.20;96769.00;;;;5035283;28;20464;-92
2023/11/22 05:57:54;;;;;;;8.60;3.43;;;;;3.00;96772.00;;;;5032498;28;20823;-90
2023/11/22 06:00:43;;;;;;;6.60;2.63;;;;;3.10;96776.00;;;;5045259;28;20462;-89
2023/11/22 06:03:32;;;;;;;10.37;4.10;;;;;3.20;96780.00;;;;5045098;28;20944;-89
2023/11/22 06:06:22;;;;;;;12.07;4.50;;;;;3.20;96783.00;;;;5038903;28;20424;-90
2023/11/22 06:09:14;;;;;;;8.70;3.30;;;;;3.20;96796.00;;;;5044303;28;20451;-92
2023/11/22 06:12:04;;;;;;;7.97;3.23;;;;;3.00;96799.00;;;;5041018;28;20426;-89
2023/11/22 06:14:53;;;;;;;8.33;3.23;;;;;2.70;96796.00;;;;5041956;28;20450;-89
2023/11/22 06:17:42;;;;;;;6.30;2.47;;;;;3.00;96810.00;;;;5032486;28;20804;-90
2023/11/22 06:20:31;;;;;;;13.53;5.07;;;;;3.00;96801.00;;;;5045933;28;20479;-90
2023/11/22 06:23:22;;;;;;;11.23;4.30;;;;;3.00;96823.00;;;;5045011;28;20944;-90
2023/11/22 06:26:11;;;;;;;13.27;6.50;;;;;2.70;96819.00;;;;5043109;28;20431;-89
2023/11/22 06:29:00;;;;;;;38.73;29.97;;;;;2.80;96822.00;;;;5046267;28;20454;-90
2023/11/22 06:31:50;;;;;;;44.90;31.93;;;;;2.90;96829.00;;;;5046221;28;20432;-90
2023/11/22 06:34:39;;;;;;;9.60;4.60;;;;;3.00;96843.00;;;;5050892;28;20414;-90
2023/11/22 06:37:28;;;;;;;10.13;4.27;;;;;2.80;96842.00;;;;5043848;28;20537;-89
2023/11/22 06:40:20;;;;;;;9.73;3.70;;;;;2.80;96835.00;;;;5045865;28;20470;-89
2023/11/22 06:43:09;;;;;;;8.80;3.40;;;;;3.00;96842.00;;;;5047278;28;20432;-89
2023/11/22 06:45:59;;;;;;;7.20;2.90;;;;;3.10;96840.00;;;;5046117;28;20434;-90
2023/11/22 06:48:49;;;;;;;7.70;3.10;;;;;3.10;96850.00;;;;5048272;28;20454;-91
2023/11/22 06:51:38;;;;;;;6.13;2.63;;;;;3.00;96859.00;;;;5047074;28;20436;-90
2023/11/22 06:54:27;;;;;;;9.57;3.73;;;;;2.90;96858.00;;;;5046803;28;20435;-90
2023/11/22 06:57:18;;;;;;;11.20;4.33;;;;;2.70;96847.00;;;;5039554;28;20428;-90
2023/11/22 07:00:09;;;;;;;12.23;4.87;;;;;2.60;96860.00;;;;5033649;28;20468;-90
2023/11/22 07:02:58;;;;;;;5.50;2.37;;;;;2.60;96860.00;;;;5039076;28;20432;-89
2023/11/22 07:05:47;;;;;;;6.87;2.80;;;;;2.50;96868.00;;;;5043689;28;20475;-89
2023/11/22 07:08:36;;;;;;;3.60;1.80;;;;;2.90;96871.00;;;;5043490;28;20613;-90
2023/11/22 07:11:25;;;;;;;10.57;4.37;;;;;3.30;96885.00;;;;5043166;28;20832;-91
2023/11/22 07:14:16;;;;;;;19.23;7.30;;;;;3.50;96887.00;;;;5039146;28;20474;-92
2023/11/22 07:17:06;;;;;;;6.57;2.90;;;;;3.50;96898.00;;;;5038974;28;20432;-92
2023/11/22 07:19:57;;;;;;;9.83;3.83;;;;;3.60;96901.00;;;;5037378;28;20443;-90
2023/11/22 07:22:46;;;;;;;8.97;3.47;;;;;3.70;96902.00;;;;5039071;28;20987;-90
2023/11/22 07:25:35;;;;;;;12.60;5.17;;;;;3.40;96902.00;;;;5041282;28;20430;-90
2023/11/22 07:28:25;;;;;;;10.83;4.17;;;;;3.20;96900.00;;;;5041625;28;20446;-90
2023/11/22 07:31:16;;;;;;;8.87;3.53;;;;;3.30;96905.00;;;;5046888;28;20887;-89
2023/11/22 07:34:06;;;;;;;4.53;1.97;;;;;3.00;96897.00;;;;5046010;28;20444;-88
2023/11/22 07:36:55;;;;;;;5.97;2.50;;;;;2.60;96905.00;;;;5050657;28;20441;-89
2023/11/22 07:39:44;;;;;;;5.57;2.57;;;;;2.60;96896.00;;;;5049226;28;20459;-89
2023/11/22 07:42:34;;;;;;;8.50;3.67;;;;;2.80;96899.00;;;;5045582;28;20454;-88
2023/11/22 07:45:23;;;;;;;13.43;5.33;;;;;2.90;96908.00;;;;5040712;28;20462;-90
2023/11/22 07:48:13;;;;;;;7.13;2.87;;;;;2.80;96910.00;;;;5039886;28;20439;-88
2023/11/22 07:51:03;;;;;;;5.63;2.43;;;;;3.00;96908.00;;;;5037080;28;20443;-88
2023/11/22 07:53:52;;;;;;;7.07;2.80;;;;;3.80;96924.00;;;;5038601;28;20436;-90
2023/11/22 07:56:43;;;;;;;9.00;3.43;;;;;3.80;96917.00;;;;5042242;28;20816;-90
2023/11/22 07:59:32;;;;;;;10.13;4.13;;;;;4.00;96915.00;;;;5047241;28;20456;-89
2023/11/22 08:02:21;;;;;;;11.30;4.57;;;;;3.90;96911.00;;;;5038999;28;20849;-88
2023/11/22 08:05:15;;;;;;;6.50;2.70;;;;;4.20;96912.00;;;;5048996;28;20800;-89
2023/11/22 08:08:07;;;;;;;6.57;2.63;;;;;4.80;96917.00;;;;5046568;28;20427;-91
2023/11/22 08:10:57;;;;;;;5.93;2.43;;;;;4.90;96923.00;;;;5048395;28;20422;-91
2023/11/22 08:13:47;;;;;;;3.87;1.60;;;;;4.90;96917.00;;;;5050886;28;20426;-90
2023/11/22 08:16:39;;;;;;;3.70;1.73;;;;;5.30;96929.00;;;;5041296;28;20941;-90
2023/11/22 08:19:29;;;;;;;8.40;3.27;;;;;5.70;96935.00;;;;5037485;28;20444;-90
2023/11/22 08:22:19;;;;;;;4.90;2.10;;;;;5.80;96937.00;;;;5039927;28;20227;-90
2023/11/22 08:25:12;;;;;;;6.40;2.63;;;;;6.10;96943.00;;;;5048016;28;20246;-90
2023/11/22 08:28:02;;;;;;;5.60;2.33;;;;;6.20;96937.00;;;;5047902;28;20200;-90
2023/11/22 08:30:54;;;;;;;6.97;2.80;;;;;6.30;96936.00;;;;5045788;28;20256;-90
2023/11/22 08:33:43;;;;;;;5.73;2.53;;;;;6.60;96944.00;;;;5044458;28;20200;-91
2023/11/22 08:36:33;;;;;;;11.10;4.43;;;;;6.90;96946.00;;;;5045024;28;20216;-91
2023/11/22 08:39:24;;;;;;;12.33;4.50;;;;;6.90;96948.00;;;;5041257;28;20228;-89
2023/11/22 08:42:14;;;;;;;6.10;2.43;;;;;7.10;96947.00;;;;5044760;28;20225;-89
2023/11/22 08:45:04;;;;;;;9.90;3.87;;;;;7.60;96953.00;;;;5042198;28;20202;-91
2023/11/22 08:47:53;;;;;;;7.00;2.80;;;;;7.60;96955.00;;;;5049037;28;20196;-89
2023/11/22 08:50:44;;;;;;;3.17;1.60;;;;;7.50;96965.00;;;;5048800;28;20208;-89
2023/11/22 08:53:33;;;;;;;14.37;5.43;;;;;7.60;96959.00;;;;5043505;28;20209;-90
2023/11/22 08:56:24;;;;;;;10.93;4.10;;;;;7.70;96972.00;;;;5050282;28;20215;-91
2023/11/22 08:59:14;;;;;;;7.80;3.20;;;;;8.20;96983.00;;;;5040200;28;20606;-90
2023/11/22 09:02:03;;;;;;;15.50;5.93;;;;;8.60;96982.00;;;;5041399;28;20220;-91
2023/11/22 09:04:52;;;;;;;12.07;4.80;;;;;8.80;96980.00;;;;5045180;28;20483;-90
2023/11/22 09:07:41;;;;;;;5.87;2.80;;;;;9.00;96981.00;;;;5041705;28;20204;-91
2023/11/22 09:10:30;;;;;;;6.10;2.97;;;;;9.20;96977.00;;;;5046265;28;20244;-91
2023/11/22 09:13:22;;;;;;;12.90;6.13;;;;;9.50;96985.00;;;;5041538;28;20209;-92
2023/11/22 09:16:12;;;;;;;12.80;5.70;;;;;9.70;96987.00;;;;5041696;28;20213;-91
2023/11/22 09:19:01;;;;;;;8.70;5.10;;;;;9.90;96986.00;;;;5044783;28;20228;-91
2023/11/22 09:21:51;;;;;;;10.33;5.33;;;;;10.10;96988.00;;;;5046894;28;20247;-91
2023/11/22 09:24:40;;;;;;;8.27;4.93;;;;;10.30;96988.00;;;;5047400;28;20201;-90
2023/11/22 09:27:29;;;;;;;16.37;7.63;;;;;10.60;96981.00;;;;5044170;28;20228;-90
2023/11/22 09:30:34;;;;;;;9.87;6.20;;;;;10.60;96979.00;;;;5041006;28;20609;-90
2023/11/22 09:33:23;;;;;;;17.70;9.03;;;;;10.60;96974.00;;;;5039606;28;20204;-89
2023/11/22 09:36:12;;;;;;;16.67;8.70;;;;;11.00;96986.00;;;;5040589;28;20206;-90
2023/11/22 09:39:02;;;;;;;10.30;6.97;;;;;11.30;96996.00;;;;5042533;28;20229;-90
2023/11/22 09:42:10;;;;;;;11.43;9.70;;;;;11.60;96981.00;;;;5038404;28;20259;-91
2023/11/22 09:45:01;;;;;;;13.23;9.53;;;;;11.90;97000.00;;;;5043323;28;20319;-91
2023/11/22 09:47:52;;;;;;;11.97;10.87;;;;;12.00;96988.00;;;;5048329;28;20201;-91
2023/11/22 09:50:44;;;;;;;16.43;14.80;;;;;12.00;96988.00;;;;5049495;28;20209;-92
2023/11/22 09:53:35;;;;;;;25.57;23.00;;;;;11.90;96990.00;;;;5038511;28;20576;-91
2023/11/22 09:56:25;;;;;;;54.97;50.50;;;;;12.50;96991.00;;;;5045805;28;20204;-91
2023/11/22 09:59:15;;;;;;;81.07;73.43;;;;;12.90;96997.00;;;;5038889;28;20658;-91
2023/11/22 10:02:06;;;;;;;72.77;66.80;;;;;12.40;96993.00;;;;5047374;28;20213;-92
2023/11/22 10:04:57;;;;;;;100.53;89.80;;;;;12.80;97005.00;;;;5055599;28;20201;-90
2023/11/22 10:07:47;;;;;;;55.60;52.10;;;;;12.90;97005.00;;;;5047873;28;20216;-91
2023/11/22 10:10:40;;;;;;;53.90;49.90;;;;;13.20;97010.00;;;;5053607;28;20205;-92
2023/11/22 10:13:29;;;;;;;84.70;77.80;;;;;14.20;97019.00;;;;5045205;28;20210;-92
2023/11/22 10:16:20;;;;;;;88.50;81.87;;;;;15.30;97011.00;;;;5037415;28;20606;-91
2023/11/22 10:19:13;;;;;;;83.80;78.07;;;;;16.10;97014.00;;;;5047838;28;20236;-92
2023/11/22 10:22:06;;;;;;;94.30;88.10;;;;;16.10;97014.00;;;;5055093;28;20341;-92
2023/11/22 10:25:00;;;;;;;86.20;81.17;;;;;15.90;97014.00;;;;5054911;28;20475;-93
2023/11/22 10:27:51;;;;;;;90.83;86.07;;;;;16.00;97015.00;;;;5042555;28;20205;-91
2023/11/22 10:30:41;;;;;;;107.97;101.53;;;;;16.40;97014.00;;;;5044460;28;20212;-92
2023/11/22 10:33:30;;;;;;;130.40;121.47;;;;;16.90;97022.00;;;;5041719;28;20197;-92
2023/11/22 10:36:20;;;;;;;151.37;140.93;;;;;17.10;97031.00;;;;5041804;28;20220;-92
2023/11/22 10:39:15;;;;;;;160.17;149.13;;;;;16.10;97022.00;;;;5051860;28;20224;-93
2023/11/22 10:42:08;;;;;;;151.10;141.10;;;;;17.40;97028.00;;;;5040239;28;20224;-92
2023/11/22 10:44:58;;;;;;;168.67;157.77;;;;;18.10;97023.00;;;;5051531;28;20201;-93
2023/11/22 10:47:47;;;;;;;181.37;168.43;;;;;17.40;97032.00;;;;5061727;28;20200;-94
2023/11/22 10:50:37;;;;;;;196.67;182.27;;;;;17.10;97042.00;;;;5048729;28;20227;-91
2023/11/22 10:53:34;;;;;;;183.20;170.70;;;;;17.90;97046.00;;;;5048586;28;20235;-91
2023/11/22 10:56:24;;;;;;;161.60;151.87;;;;;16.90;97046.00;;;;5045851;28;20201;-92
2023/11/22 10:59:16;;;;;;;156.53;147.17;;;;;18.30;97058.00;;;;5047402;28;20224;-91
2023/11/22 11:02:05;;;;;;;171.07;160.43;;;;;18.50;97052.00;;;;5044759;28;20192;-93
2023/11/22 11:05:00;;;;;;;216.67;202.00;;;;;19.10;97052.00;;;;5053319;28;20215;-93
2023/11/22 11:08:01;;;;;;;227.03;211.07;;;;;17.60;97055.00;;;;5051066;28;20201;-93
2023/11/22 11:10:50;;;;;;;217.93;203.53;;;;;17.00;97054.00;;;;5033792;28;20210;-94
2023/11/22 11:13:42;;;;;;;247.90;227.90;;;;;17.80;97057.00;;;;5040542;28;20237;-94
2023/11/22 11:16:33;;;;;;;286.57;246.83;;;;;18.80;97070.00;;;;5035266;28;20208;-93
2023/11/22 11:19:23;;;;;;;355.23;257.67;;;;;18.40;97065.00;;;;5047023;28;20220;-92
2023/11/22 11:22:13;;;;;;;263.20;240.57;;;;;17.90;97053.00;;;;5050348;28;20219;-93
2023/11/22 11:25:08;;;;;;;260.33;239.57;;;;;19.20;97068.00;;;;5037442;28;20205;-92
2023/11/22 11:27:59;;;;;;;273.67;250.87;;;;;19.50;97091.00;;;;5047227;28;20622;-93
2023/11/22 11:30:50;;;;;;;275.33;252.03;;;;;19.40;97074.00;;;;5049179;28;20193;-92
2023/11/22 11:33:55;;;;;;;314.03;284.60;;;;;19.30;97076.00;;;;5047986;28;20232;-94
2023/11/22 11:36:45;;;;;;;320.70;285.87;;;;;19.00;97081.00;;;;5058034;28;20200;-95
2023/11/22 11:39:35;;;;;;;341.10;297.33;;;;;19.00;97072.00;;;;5048840;28;20229;-95
2023/11/22 11:42:25;;;;;;;342.10;288.53;;;;;19.20;97064.00;;;;5056326;28;20207;-94
2023/11/22 11:45:14;;;;;;;356.93;294.00;;;;;18.10;97061.00;;;;5038780;28;20189;-96
2023/11/22 11:48:05;;;;;;;372.53;295.63;;;;;19.50;97070.00;;;;5062783;28;20193;-95
2023/11/22 11:50:54;;;;;;;373.77;296.20;;;;;19.40;97068.00;;;;5065817;28;20244;-94
2023/11/22 11:53:43;;;;;;;397.67;304.50;;;;;20.50;97072.00;;;;5043062;28;20224;-95
2023/11/22 11:56:33;;;;;;;368.70;323.93;;;;;21.00;97078.00;;;;5053818;28;20209;-93
2023/11/22 11:59:22;;;;;;;367.47;333.40;;;;;19.40;97062.00;;;;5039173;28;20221;-95
2023/11/22 12:02:11;;;;;;;388.23;349.80;;;;;18.40;97063.00;;;;5065867;28;20212;-92
2023/11/22 12:05:08;;;;;;;391.30;351.17;;;;;19.90;97077.00;;;;5045140;28;20207;-94
2023/11/22 12:07:57;;;;;;;387.23;346.83;;;;;19.40;97067.00;;;;5060799;28;20205;-94
2023/11/22 12:10:49;;;;;;;389.33;350.00;;;;;19.40;97066.00;;;;5045821;28;20205;-93
2023/11/22 12:13:39;;;;;;;390.23;350.50;;;;;19.70;97048.00;;;;5042311;28;20597;-94
2023/11/22 12:16:30;;;;;;;395.30;354.87;;;;;21.00;97039.00;;;;5057339;28;20196;-94
2023/11/22 12:19:23;;;;;;;389.37;353.10;;;;;21.90;97046.00;;;;5062885;28;20235;-95
2023/11/22 12:22:13;;;;;;;398.07;359.57;;;;;20.50;97058.00;;;;5051935;28;20196;-94
2023/11/22 12:25:03;;;;;;;408.43;366.03;;;;;21.40;97065.00;;;;5037742;28;20293;-95
2023/11/22 12:27:56;;;;;;;408.53;366.20;;;;;20.40;97070.00;;;;5052258;28;20217;-95
2023/11/22 12:30:45;;;;;;;414.50;371.57;;;;;21.80;97074.00;;;;5034550;28;20205;-94
2023/11/22 12:33:35;;;;;;;431.70;393.83;;;;;21.70;97075.00;;;;5042986;28;20227;-94
2023/11/22 12:36:24;;;;;;;434.47;396.80;;;;;21.60;97080.00;;;;5041572;28;20692;-95
2023/11/22 12:39:16;;;;;;;434.07;397.40;;;;;22.30;97081.00;;;;5041786;28;20244;-94
2023/11/22 12:42:06;;;;;;;446.83;408.87;;;;;22.80;97092.00;;;;5044411;28;20209;-94
2023/11/22 12:44:58;;;;;;;463.33;423.47;;;;;21.60;97095.00;;;;5048748;28;20214;-94
2023/11/22 12:47:48;;;;;;;469.80;430.07;;;;;22.70;97095.00;;;;5053832;28;20205;-94
2023/11/22 12:50:39;;;;;;;491.57;448.93;;;;;21.30;97088.00;;;;5056567;28;20207;-93
2023/11/22 12:53:29;;;;;;;483.47;439.40;;;;;22.70;97097.00;;;;5065221;28;20230;-94
2023/11/22 12:56:20;;;;;;;486.30;438.50;;;;;22.20;97100.00;;;;5049077;28;20204;-94
2023/11/22 12:59:10;;;;;;;481.63;433.60;;;;;22.10;97093.00;;;;5061803;28;20221;-94
2023/11/22 13:02:00;;;;;;;473.17;434.40;;;;;22.10;97079.00;;;;5043519;28;20193;-93
2023/11/22 13:04:49;;;;;;;482.37;434.80;;;;;22.20;97085.00;;;;5046946;28;20203;-91
2023/11/22 13:07:38;;;;;;;493.77;445.30;;;;;22.90;97091.00;;;;5058594;28;20192;-95
2023/11/22 13:10:29;;;;;;;498.07;448.77;;;;;21.50;97075.00;;;;5050382;28;20231;-94
2023/11/22 13:13:20;;;;;;;486.23;438.10;;;;;21.80;97069.00;;;;5051945;28;20230;-96
2023/11/22 13:16:09;;;;;;;490.40;441.50;;;;;22.50;97077.00;;;;5065900;28;20210;-96
2023/11/22 13:18:59;;;;;;;485.37;437.53;;;;;22.50;97080.00;;;;5055088;28;20298;-95
2023/11/22 13:21:49;;;;;;;484.20;441.63;;;;;23.40;97094.00;;;;5047487;28;20673;-93
2023/11/22 13:24:38;;;;;;;516.20;466.00;;;;;23.90;97100.00;;;;5055206;28;20666;-94
2023/11/22 13:27:28;;;;;;;537.13;485.97;;;;;23.70;97096.00;;;;5065976;28;20201;-96
2023/11/22 13:30:22;;;;;;;542.53;492.03;;;;;23.90;97106.00;;;;5060804;28;20213;-95
2023/11/22 13:33:12;;;;;;;548.37;497.63;;;;;23.20;97106.00;;;;5060220;28;20238;-95
2023/11/22 13:36:02;;;;;;;548.73;498.27;;;;;24.30;97112.00;;;;5065540;28;20231;-96
2023/11/22 13:38:51;;;;;;;554.23;503.60;;;;;24.60;97148.00;;;;5057807;28;20223;-94
2023/11/22 13:41:40;;;;;;;567.60;516.00;;;;;23.80;97134.00;;;;5067368;28;20205;-96
2023/11/22 13:44:29;;;;;;;569.97;518.20;;;;;23.30;97112.00;;;;5062181;28;20284;-94
2023/11/22 13:47:20;;;;;;;554.90;505.43;;;;;24.00;97121.00;;;;5061949;28;20209;-94
2023/11/22 13:50:10;;;;;;;555.07;504.47;;;;;23.30;97113.00;;;;5070020;28;20228;-95
2023/11/22 13:52:59;;;;;;;555.40;504.77;;;;;24.30;97162.00;;;;5063974;28;20209;-94
2023/11/22 13:55:50;;;;;;;551.50;501.83;;;;;23.00;97136.00;;;;5061422;28;20292;-95
2023/11/22 13:58:39;;;;;;;560.83;509.47;;;;;23.60;97106.00;;;;5051714;28;20232;-93
2023/11/22 14:01:28;;;;;;;558.40;506.70;;;;;23.30;97139.00;;;;5055915;28;20219;-94
2023/11/22 14:04:20;;;;;;;558.37;507.53;;;;;22.70;97198.00;;;;5055321;28;20220;-94